createdAt,value
2023-03-28T00:02:35.354Z,12.09
2023-03-28T00:14:35.317Z,12.07
2023-03-28T00:26:35.311Z,12.08
2023-03-28T00:38:35.317Z,12.05
2023-03-28T00:50:35.327Z,12.05
2023-03-28T01:02:37.077Z,12.05
2023-03-28T01:14:35.309Z,12.02
2023-03-28T01:26:35.320Z,12.01
2023-03-28T01:38:35.307Z,12.00
2023-03-28T01:50:35.327Z,11.98
2023-03-28T02:02:35.428Z,11.99
2023-03-28T02:14:35.310Z,11.98
2023-03-28T02:26:35.310Z,11.97
2023-03-28T02:38:35.312Z,11.95
2023-03-28T02:50:35.321Z,11.93
2023-03-28T03:02:35.355Z,11.93
2023-03-28T03:14:35.410Z,11.92
2023-03-28T03:26:35.374Z,11.91
2023-03-28T03:38:35.308Z,11.89
2023-03-28T04:02:35.522Z,11.87
2023-03-28T04:14:35.313Z,11.85
2023-03-28T04:26:39.744Z,11.84
2023-03-28T04:38:35.319Z,11.84
2023-03-28T04:50:36.013Z,11.83
2023-03-28T05:02:35.506Z,11.82
2023-03-28T05:14:35.308Z,11.81
2023-03-28T05:26:35.315Z,11.80
2023-03-28T05:38:35.441Z,11.79
2023-03-28T05:50:35.380Z,11.80
2023-03-28T06:02:35.452Z,11.82
2023-03-28T06:14:35.439Z,11.86
2023-03-28T06:26:35.307Z,11.91
2023-03-28T06:38:35.441Z,11.98
2023-03-28T06:50:35.437Z,12.07
2023-03-28T07:02:35.389Z,12.14
2023-03-28T07:14:35.328Z,12.28
2023-03-28T07:26:35.316Z,12.36
2023-03-28T07:38:35.310Z,12.53
2023-03-28T07:50:35.402Z,12.63
2023-03-28T08:02:35.378Z,12.65
2023-03-28T08:14:35.442Z,12.64
2023-03-28T08:26:35.395Z,12.65
2023-03-28T08:38:35.390Z,12.66
2023-03-28T08:50:35.318Z,12.66
2023-03-28T09:02:36.765Z,12.68
2023-03-28T09:14:35.313Z,12.65
2023-03-28T09:26:35.414Z,12.65
2023-03-28T09:38:35.363Z,12.65
2023-03-28T09:50:35.342Z,12.65
2023-03-28T10:02:35.345Z,12.64
2023-03-28T10:14:35.326Z,12.64
2023-03-28T10:26:35.374Z,12.68
2023-03-28T10:38:35.309Z,12.66
2023-03-28T10:50:36.623Z,12.65
2023-03-28T11:02:35.440Z,12.65
2023-03-28T11:14:35.401Z,12.65
2023-03-28T11:26:35.391Z,12.64
2023-03-28T11:38:41.079Z,12.69
2023-03-28T11:50:35.429Z,12.68
2023-03-28T12:02:35.414Z,12.68
2023-03-28T12:14:35.423Z,12.68
2023-03-28T12:26:35.310Z,12.67
2023-03-28T12:38:35.398Z,12.67
2023-03-28T12:50:35.368Z,12.67
2023-03-28T13:02:35.346Z,12.67
2023-03-28T13:14:35.434Z,12.66
2023-03-28T13:26:35.331Z,12.66
2023-03-28T13:38:35.308Z,12.66
2023-03-28T13:50:35.416Z,12.66
2023-03-28T14:02:35.489Z,12.66
2023-03-28T14:14:35.543Z,12.66
2023-03-28T14:26:35.395Z,12.66
2023-03-28T14:38:35.437Z,12.66
2023-03-28T14:50:35.424Z,12.66
2023-03-28T15:02:35.465Z,12.66
2023-03-28T15:14:36.279Z,12.66
2023-03-28T15:26:35.305Z,12.66
2023-03-28T15:38:35.319Z,12.65
2023-03-28T15:50:35.366Z,12.64
2023-03-28T16:02:40.462Z,12.62
2023-03-28T16:14:35.426Z,12.60
2023-03-28T16:26:38.349Z,12.59
2023-03-28T16:38:35.315Z,12.59
2023-03-28T16:50:36.246Z,12.58
2023-03-28T17:02:35.403Z,12.58
2023-03-28T17:14:35.427Z,12.57
2023-03-28T17:26:35.396Z,12.54
2023-03-28T17:38:35.394Z,12.53
2023-03-28T17:50:35.320Z,12.52
2023-03-28T18:02:35.407Z,12.51
2023-03-28T18:14:35.370Z,12.49
2023-03-28T18:26:35.310Z,12.47
2023-03-28T18:38:36.739Z,12.46
2023-03-28T18:50:35.428Z,12.45
2023-03-28T19:02:35.666Z,12.43
2023-03-28T19:14:35.328Z,12.42
2023-03-28T19:26:35.346Z,12.41
2023-03-28T19:38:35.428Z,12.39
2023-03-28T19:50:35.546Z,12.37
2023-03-28T20:02:35.456Z,12.37
2023-03-28T20:14:35.467Z,12.35
2023-03-28T20:26:35.355Z,12.35
2023-03-28T20:38:37.496Z,12.33
2023-03-28T20:50:35.430Z,12.31
2023-03-28T21:02:35.354Z,12.30
2023-03-28T21:14:35.433Z,12.28
2023-03-28T21:26:35.325Z,12.28
2023-03-28T21:38:35.434Z,12.27
2023-03-28T21:50:35.431Z,12.26
2023-03-28T22:02:35.616Z,12.25
2023-03-28T22:14:35.407Z,12.23
2023-03-28T22:26:35.323Z,12.21
2023-03-28T22:38:35.437Z,12.21
2023-03-28T22:50:35.387Z,12.20
2023-03-28T23:02:35.425Z,12.19
2023-03-28T23:14:35.424Z,12.18
2023-03-28T23:26:35.321Z,12.16
2023-03-28T23:38:35.390Z,12.15
2023-03-28T23:50:35.317Z,12.15
